• Join FlightAware (Why Join?)
  • Login
  • US Flag 
Trick or treat! (Boo!!) 
01:36PM EDT


 

Airport Tracker/Info


-or-


 

Live Flight TrackerFlight Track Log ✈ EJA922 ✈ 07-Mar-2014 ✈ KBTR - KROC

Flight Track Log - Related Links

Times and Time Zones

All times are in EST time to prevent confusion due to time zone crossing. See the EJA922 flight status page for this flight to view local times or setup timezone preferences in your user account.

Time Position Orientation Groundspeed Altitude Reporting Facility
EST Latitude Longitude Course Direction KTS MPH feet Rate Location/Type
04:27PM 30.5928 -91.0586 63° Northeast 257 296 5,800  Level Houston Center
04:28PM 30.6281 -90.9764 63° Northeast 273 314 9,600 2,520 Climbing Houston Center
04:29PM 30.6622 -90.8628 71° East 364 419 11,100 2,220 Climbing Houston Center
04:30PM 30.6753 -90.6958 85° East 431 496 14,300 2,760 Climbing Houston Center
04:31PM 30.6961 -90.5583 80° East 435 501 16,900 2,100 Climbing Houston Center
04:32PM 30.7778 -90.4597 46° Northeast 424 488 18,700 1,560 Climbing Houston Center
04:33PM 30.8836 -90.3886 30° Northeast 430 495 20,200 1,380 Climbing Houston Center
04:34PM 30.9911 -90.3131 31° Northeast 444 511 21,600 1,320 Climbing Houston Center
04:35PM 31.1031 -90.2350 31° Northeast 462 532 23,000 1,320 Climbing Houston Center
04:36PM 31.2172 -90.1567 30° Northeast 466 536 24,400 1,440 Climbing Houston Center
04:37PM 31.3567 -90.0583 31° Northeast 484 557 26,000 1,440 Climbing Houston Center
04:38PM 31.4744 -89.9750 31° Northeast 490 564 27,400 1,320 Climbing Houston Center
04:39PM 31.5933 -89.8906 31° Northeast 493 567 28,800 1,260 Climbing Houston Center
04:40PM 31.7125 -89.8056 31° Northeast 500 575 30,100 1,320 Climbing Houston Center
04:41PM 31.8367 -89.7164 31° Northeast 505 581 31,600 1,500 Climbing Houston Center
04:42PM 31.9436 -89.6403 31° Northeast 506 582 32,800 1,440 Climbing Memphis Center
04:43PM 32.0672 -89.5517 31° Northeast 515 593 34,200 1,320 Climbing Memphis Center
04:44PM 32.1906 -89.4625 31° Northeast 518 596 35,600 1,260 Climbing Memphis Center
04:45PM 32.3136 -89.3736 31° Northeast 520 598 36,900 1,260 Climbing Memphis Center
04:46PM 32.4361 -89.2847 31° Northeast 520 598 38,300 1,440 Climbing Memphis Center
04:47PM 32.5814 -89.1794 31° Northeast 520 598 39,900 1,080 Climbing Memphis Center
04:48PM 32.7028 -89.0911 31° Northeast 520 598 40,600 480 Climbing Memphis Center
04:49PM 32.8242 -89.0019 32° Northeast 520 598 41,000 180 Climbing Memphis Center
04:50PM 32.9483 -88.9128 31° Northeast 521 600 41,000  Level Memphis Center
04:51PM 33.0922 -88.8061 32° Northeast 519 597 41,000  Level Memphis Center
04:52PM 33.2117 -88.7175 32° Northeast 513 590 41,000  Level Memphis Center
04:53PM 33.3300 -88.6292 32° Northeast 510 587 41,000  Level Memphis Center
04:54PM 33.4506 -88.5406 32° Northeast 510 587 41,000  Level Memphis Center
04:55PM 33.5717 -88.4531 31° Northeast 510 587 41,000  Level Memphis Center
04:56PM 33.7217 -88.3547 29° Northeast 510 587 41,000  Level Memphis Center
04:58PM 33.8458 -88.2725 29° Northeast 510 587 41,000  Level Memphis Center
04:59PM 33.9686 -88.1906 29° Northeast 508 585 41,000  Level Memphis Center
05:00PM 34.0906 -88.1075 29° Northeast 506 582 41,000  Level Memphis Center
05:01PM 34.2128 -88.0258 29° Northeast 504 580 41,000  Level Memphis Center
05:02PM 34.3342 -87.9436 29° Northeast 502 578 41,000  Level Memphis Center
05:03PM 34.4692 -87.8522 29° Northeast 501 577 41,000  Level Memphis Center
05:04PM 34.6039 -87.7600 29° Northeast 500 575 41,000  Level Memphis Center
05:05PM 34.7253 -87.6756 30° Northeast 500 575 41,000  Level Memphis Center
05:06PM 34.8464 -87.5928 29° Northeast 498 573 41,000  Level Memphis Center
05:07PM 34.9661 -87.5097 30° Northeast 497 572 41,000  Level Memphis Center
05:08PM 35.0872 -87.4256 30° Northeast 497 572 41,000  Level Memphis Center
05:09PM 35.2078 -87.3419 30° Northeast 497 572 41,000  Level Memphis Center
05:10PM 35.3292 -87.2572 30° Northeast 498 573 41,000  Level Memphis Center
05:11PM 35.4619 -87.1639 30° Northeast 497 572 41,000  Level Memphis Center
05:12PM 35.5825 -87.0797 30° Northeast 496 571 41,000  Level Memphis Center
05:13PM 35.7228 -86.9800 30° Northeast 496 571 41,000  Level Memphis Center
05:14PM 35.8436 -86.8944 30° Northeast 496 571 41,000  Level Memphis Center
05:15PM 35.9633 -86.8083 30° Northeast 496 571 41,000  Level Memphis Center
05:16PM 36.0831 -86.7231 30° Northeast 496 571 41,000  Level Memphis Center
05:17PM 36.2053 -86.6450 27° Northeast 496 571 41,000  Level Memphis Center
05:18PM 36.3511 -86.5658 24° Northeast 495 570 41,000  Level Memphis Center
05:19PM 36.4778 -86.4964 24° Northeast 496 571 41,000  Level Memphis Center
05:20PM 36.6039 -86.4267 24° Northeast 495 570 41,000  Level Memphis Center
05:21PM 36.7308 -86.3564 24° Northeast 495 570 41,000  Level Memphis Center
05:22PM 36.8583 -86.2856 24° Northeast 495 570 41,000  Level Memphis Center
05:23PM 36.9850 -86.2136 24° Northeast 496 571 41,000  Level Memphis Center
05:25PM 37.1347 -86.1314 24° Northeast 497 572 41,000  Level Indianapolis Center
05:26PM 37.2617 -86.0592 24° Northeast 497 572 41,000  Level Indianapolis Center
05:27PM 37.3897 -85.9878 24° Northeast 497 572 41,000  Level Indianapolis Center
05:28PM 37.5381 -85.9025 25° Northeast 497 572 41,000  Level Indianapolis Center
05:29PM 37.6528 -85.8358 25° Northeast 499 574 41,000  Level Indianapolis Center
05:30PM 37.7789 -85.7644 24° Northeast 499 574 41,000  Level Indianapolis Center
05:32PM 38.0569 -85.6033 25° Northeast 499 574 41,000  Level Indianapolis Center
05:33PM 38.1819 -85.5258 26° Northeast 499 574 41,000  Level Indianapolis Center
05:34PM 38.3058 -85.4400 29° Northeast 501 577 41,000  Level Indianapolis Center
05:35PM 38.4281 -85.3569 28° Northeast 501 577 41,000  Level Indianapolis Center
05:36PM 38.5517 -85.2714 28° Northeast 501 577 41,000  Level Indianapolis Center
05:37PM 38.6839 -85.1819 28° Northeast 501 577 41,000  Level Indianapolis Center
05:38PM 38.8058 -85.0969 29° Northeast 501 577 41,000  Level Indianapolis Center
05:39PM 38.9519 -84.9953 28° Northeast 501 577 41,000  Level Indianapolis Center
05:40PM 39.0725 -84.9108 29° Northeast 501 577 41,000  Level Indianapolis Center
05:41PM 39.2042 -84.8186 28° Northeast 501 577 41,000  Level Indianapolis Center
05:42PM 39.3267 -84.7322 29° Northeast 502 578 41,000  Level Indianapolis Center
05:43PM 39.4414 -84.6292 35° Northeast 503 579 41,000  Level Indianapolis Center
05:44PM 39.5447 -84.5033 43° Northeast 508 585 41,000  Level Indianapolis Center
05:45PM 39.6458 -84.3761 44° Northeast 508 585 41,000  Level Indianapolis Center
05:46PM 39.7472 -84.2492 44° Northeast 508 585 41,000  Level Indianapolis Center
05:47PM 39.8700 -84.0944 44° Northeast 508 585 41,000  Level Indianapolis Center
05:48PM 39.9725 -83.9650 44° Northeast 508 585 41,000  Level Indianapolis Center
05:49PM 40.0756 -83.8350 44° Northeast 508 585 41,000  Level Indianapolis Center
05:50PM 40.1783 -83.7033 44° Northeast 509 586 41,000  Level Indianapolis Center
05:51PM 40.2817 -83.5722 44° Northeast 510 587 41,000  Level Indianapolis Center
05:52PM 40.3839 -83.4400 45° Northeast 511 588 41,000  Level Indianapolis Center
05:53PM 40.4875 -83.3078 44° Northeast 512 589 41,000  Level Indianapolis Center
05:55PM 40.5894 -83.1753 45° Northeast 513 590 41,000  Level Indianapolis Center
05:56PM 40.6900 -83.0200 49° Northeast 515 593 41,000  Level Indianapolis Center
05:57PM 40.7706 -82.8222 62° Northeast 518 596 41,000  Level Indianapolis Center
05:58PM 40.8392 -82.6517 62° Northeast 518 596 41,000  Level Indianapolis Center
05:58PM 40.8858 -82.5392 61° Northeast 520 598 41,000  Level Cleveland Center
05:59PM 40.9531 -82.3678 63° Northeast 520 598 41,000  Level Cleveland Center
06:00PM 41.0325 -82.1714 62° Northeast 520 598 41,000  Level Cleveland Center
06:01PM 41.1008 -81.9992 62° Northeast 520 598 41,000  Level Cleveland Center
06:03PM 41.1692 -81.8261 62° Northeast 520 598 41,000  Level Cleveland Center
06:04PM 41.2361 -81.6547 63° Northeast 520 598 41,000  Level Cleveland Center
06:05PM 41.3042 -81.4819 62° Northeast 521 600 41,000  Level Cleveland Center
06:06PM 41.3778 -81.2936 62° Northeast 521 600 41,000  Level Cleveland Center
06:07PM 41.4450 -81.1197 63° Northeast 522 601 41,000  Level Cleveland Center
06:08PM 41.5111 -80.9478 63° Northeast 521 600 41,000  Level Cleveland Center
06:09PM 41.5769 -80.7733 63° Northeast 521 600 41,000  Level Cleveland Center
06:10PM 41.6431 -80.6008 63° Northeast 521 600 41,000 -180 Level Cleveland Center
06:11PM 41.7094 -80.4286 63° Northeast 520 598 40,700 -780 Descending Cleveland Center
06:12PM 41.7856 -80.2242 63° Northeast 521 600 39,500 -1,140 Descending Cleveland Center
06:13PM 41.8533 -80.0497 62° Northeast 523 602 38,400 -1,200 Descending Cleveland Center
06:14PM 41.9539 -79.9061 47° Northeast 525 604 37,100 -1,740 Descending Cleveland Center
06:15PM 42.0569 -79.7764 43° Northeast 513 590 34,900 -2,460 Descending Cleveland Center
06:16PM 42.1592 -79.6469 43° Northeast 506 582 32,100 -2,760 Descending Cleveland Center
06:17PM 42.2631 -79.5142 43° Northeast 519 597 29,300 -2,820 Descending Cleveland Center
06:18PM 42.3861 -79.3561 43° Northeast 517 595 26,300 -1,860 Descending Cleveland Center
06:19PM 42.4839 -79.2078 48° Northeast 511 588 25,500 -900 Descending Cleveland Center
06:20PM 42.5328 -79.0317 69° East 504 580 24,500 -1,020 Descending Cleveland Center
06:21PM 42.6022 -78.8672 60° Northeast 500 575 23,500 -1,740 Descending Cleveland Center
06:22PM 42.6711 -78.7097 59° Northeast 489 563 21,000 -2,640 Descending Cleveland Center
06:23PM 42.6978 -78.6456 60° Northeast 472 543 19,900 -2,700 Descending Cleveland Center
06:23PM 42.7375 -78.5575 58° Northeast 469 540 18,200 -2,820 Descending Cleveland Center
06:24PM 42.8114 -78.3856 60° Northeast 451 519 15,100 -2,640 Descending Cleveland Center
06:24PM 42.8031 -78.4089 244° Southwest 461 531 15,500 -2,580 Climbing Cleveland Center
06:25PM 42.8725 -78.2464 60° Northeast 429 494 12,500 -3,000 Descending Cleveland Center
06:25PM 42.8769 -78.2389 51° Northeast 439 505 12,400 -1,500 Descending Cleveland Center
06:26PM 42.9286 -78.1114 61° Northeast 401 461 11,000 -1,380 Descending Cleveland Center
06:26PM 42.9325 -78.1036 56° Northeast 411 473 11,000 -1,080 Level Cleveland Center
06:28PM 42.9653 -77.8614 56° Northeast 300 345 8,800 -1,320 Descending Cleveland Center
06:29PM 42.9797 -77.7433 80° East 301 346 7,000 -1,800 Descending Cleveland Center
06:29PM 42.9806 -77.7514 278° West 295 339 7,000  Level Cleveland Center
06:30PM 42.9958 -77.6319 80° East 301 346 7,000  Level Cleveland Center
06:30PM 42.9953 -77.6383 263° West 295 339 7,000 -420 Level Cleveland Center
06:31PM 43.0108 -77.5261 79° East 271 312 6,600 -420 Descending Cleveland Center
06:31PM 43.0100 -77.5286 245° Southwest 295 339 6,600 -1,020 Level Cleveland Center
06:32PM 43.0278 -77.4350 345° North 244 281 5,600 -1,320 Descending Cleveland Center
06:33PM 43.1095 -77.6591 345° North  Level Estimated
06:34PM 43.0964 -77.4186 10° North 230 265 3,900  Level Cleveland Center
06:34PM 43.1136 -77.4747 293° West 183 211 3,000 -1,080 Descending Cleveland Center
06:35PM 43.1161 -77.4858 287° West 198 228 2,800 -840 Descending Cleveland Center
06:35PM 43.1236 -77.5383 281° West 167 192 2,200 -720 Descending Cleveland Center
06:36PM 43.1258 -77.5494 285° West 183 211 2,100 -720 Descending Cleveland Center
06:36PM 43.1244 -77.5936 268° West 133 153 1,500 -780 Descending Cleveland Center
06:37PM 43.1242 -77.6008 267° West 156 180 1,300 -780 Descending Cleveland Center
06:37PM 43.1228 -77.6336 267° West 135 155 900 -720 Descending Cleveland Center
06:38PM 43.1228 -77.6519 270° West 141 162 600 -600 Descending Cleveland Center